createdAt,value
2022-11-05T00:01:03.972Z,2.92
2022-11-05T00:04:07.854Z,2.38
2022-11-05T00:07:13.360Z,2.40
2022-11-05T00:10:10.237Z,2.70
2022-11-05T00:13:16.831Z,2.42
2022-11-05T00:16:20.955Z,2.38
2022-11-05T00:19:06.466Z,2.58
2022-11-05T00:22:10.557Z,3.40
2022-11-05T00:25:14.328Z,2.88
2022-11-05T00:28:03.806Z,4.15
2022-11-05T00:30:49.227Z,3.33
2022-11-05T00:33:34.550Z,4.30
2022-11-05T00:36:19.903Z,3.70
2022-11-05T00:39:05.962Z,6.10
2022-11-05T00:42:11.378Z,4.85
2022-11-05T00:45:02.299Z,5.95
2022-11-05T00:48:06.976Z,5.40
2022-11-05T00:50:52.367Z,5.07
2022-11-05T00:53:38.081Z,3.58
2022-11-05T00:56:23.375Z,5.05
2022-11-05T00:59:08.874Z,3.53
2022-11-05T01:01:54.370Z,3.67
2022-11-05T01:04:39.576Z,3.90
2022-11-05T01:07:25.202Z,3.50
2022-11-05T01:10:10.994Z,3.63
2022-11-05T01:12:56.938Z,3.67
2022-11-05T01:15:43.030Z,4.88
2022-11-05T01:18:28.771Z,4.40
2022-11-05T01:21:15.738Z,4.18
2022-11-05T01:24:02.560Z,3.88
2022-11-05T01:26:47.731Z,3.88
2022-11-05T01:29:33.262Z,3.60
2022-11-05T01:32:18.794Z,3.85
2022-11-05T01:35:10.258Z,4.03
2022-11-05T01:37:56.247Z,3.30
2022-11-05T01:40:43.223Z,4.75
2022-11-05T01:43:52.710Z,4.22
2022-11-05T01:46:43.347Z,3.15
2022-11-05T01:49:34.046Z,5.00
2022-11-05T01:52:20.411Z,3.58
2022-11-05T01:55:07.207Z,3.85
2022-11-05T01:57:56.783Z,4.07
2022-11-05T02:00:42.854Z,3.85
2022-11-05T02:03:29.258Z,3.63
2022-11-05T02:06:17.273Z,4.68
2022-11-05T02:09:10.247Z,5.63
2022-11-05T02:14:40.731Z,5.28
2022-11-05T02:18:03.709Z,5.53
2022-11-05T02:21:07.501Z,4.85
2022-11-05T02:24:49.710Z,4.47
2022-11-05T02:27:57.585Z,4.93
2022-11-05T02:30:47.527Z,5.05
2022-11-05T02:33:44.262Z,4.60
2022-11-05T02:36:51.829Z,3.75
2022-11-05T02:39:50.923Z,5.68
2022-11-05T02:43:02.346Z,4.40
2022-11-05T02:45:53.305Z,4.38
2022-11-05T02:49:16.324Z,3.47
2022-11-05T02:52:08.650Z,3.33
2022-11-05T02:55:21.218Z,3.95
2022-11-05T02:58:07.156Z,3.88
2022-11-05T03:00:55.174Z,4.40
2022-11-05T03:03:51.385Z,3.38
2022-11-05T03:06:58.529Z,3.65
2022-11-05T03:10:38.187Z,2.75
2022-11-05T03:13:41.989Z,3.50
2022-11-05T03:16:39.432Z,4.15
2022-11-05T03:19:36.370Z,3.08
2022-11-05T03:22:27.504Z,2.67
2022-11-05T03:25:17.647Z,3.22
2022-11-05T03:28:08.197Z,4.18
2022-11-05T03:30:56.827Z,2.80
2022-11-05T03:33:44.203Z,2.63
2022-11-05T03:36:34.385Z,3.13
2022-11-05T03:39:24.118Z,3.10
2022-11-05T03:42:14.280Z,5.25
2022-11-05T03:45:05.374Z,2.70
2022-11-05T03:47:54.883Z,3.55
2022-11-05T03:50:49.194Z,3.03
2022-11-05T03:53:59.106Z,2.92
2022-11-05T03:57:03.311Z,3.75
2022-11-05T03:59:50.073Z,2.83
2022-11-05T04:02:37.036Z,3.30
2022-11-05T04:05:22.469Z,3.08
2022-11-05T04:08:27.315Z,3.30
2022-11-05T04:11:31.275Z,2.90
2022-11-05T04:14:16.365Z,2.53
2022-11-05T04:17:09.303Z,2.53
2022-11-05T04:20:12.834Z,2.72
2022-11-05T04:23:22.628Z,3.10
2022-11-05T04:26:08.053Z,2.38
2022-11-05T04:29:12.489Z,2.55
2022-11-05T04:31:57.803Z,2.75
2022-11-05T04:34:43.242Z,2.55
2022-11-05T04:37:28.543Z,2.88
2022-11-05T04:40:14.009Z,2.60
2022-11-05T04:42:59.775Z,2.25
2022-11-05T04:45:45.720Z,3.15
2022-11-05T04:48:30.870Z,2.38
2022-11-05T04:51:16.787Z,2.97
2022-11-05T04:54:02.143Z,2.25
2022-11-05T04:56:47.966Z,2.72
2022-11-05T04:59:32.977Z,2.38
2022-11-05T05:02:18.596Z,2.58
2022-11-05T05:05:04.957Z,3.72
2022-11-05T05:07:50.140Z,2.53
2022-11-05T05:10:35.614Z,2.72
2022-11-05T05:13:21.104Z,2.75
2022-11-05T05:16:07.725Z,2.83
2022-11-05T05:18:54.055Z,2.95
2022-11-05T05:21:39.436Z,2.60
2022-11-05T05:24:24.981Z,2.92
2022-11-05T05:27:10.694Z,2.50
2022-11-05T05:29:59.423Z,3.25
2022-11-05T05:32:44.875Z,2.72
2022-11-05T05:35:30.747Z,2.95
2022-11-05T05:38:16.282Z,2.78
2022-11-05T05:41:01.816Z,3.20
2022-11-05T05:43:47.110Z,2.83
2022-11-05T05:46:32.804Z,2.97
2022-11-05T05:49:18.051Z,2.60
2022-11-05T05:52:03.649Z,2.75
2022-11-05T05:54:48.937Z,2.22
2022-11-05T05:57:34.351Z,3.45
2022-11-05T06:00:20.077Z,2.83
2022-11-05T06:03:06.522Z,2.83
2022-11-05T06:05:52.370Z,2.50
2022-11-05T06:08:37.700Z,3.03
2022-11-05T06:11:24.534Z,2.95
2022-11-05T06:14:12.230Z,2.95
2022-11-05T06:16:57.430Z,2.47
2022-11-05T06:19:43.063Z,2.92
2022-11-05T06:22:28.746Z,2.30
2022-11-05T06:25:14.326Z,1.90
2022-11-05T06:28:00.211Z,2.95
2022-11-05T06:30:51.739Z,3.13
2022-11-05T06:33:36.938Z,3.80
2022-11-05T06:36:22.493Z,2.97
2022-11-05T06:39:12.472Z,3.70
2022-11-05T06:42:17.146Z,2.88
2022-11-05T06:45:03.403Z,3.10
2022-11-05T06:47:54.671Z,3.72
2022-11-05T06:50:44.535Z,3.72
2022-11-05T06:53:29.900Z,2.88
2022-11-05T06:56:15.293Z,2.83
2022-11-05T06:59:00.638Z,2.95
2022-11-05T07:01:46.316Z,3.88
2022-11-05T07:04:32.288Z,3.17
2022-11-05T07:07:17.453Z,3.70
2022-11-05T07:10:03.582Z,3.90
2022-11-05T07:12:48.703Z,2.80
2022-11-05T07:15:34.195Z,3.63
2022-11-05T07:18:19.818Z,3.03
2022-11-05T07:21:05.459Z,2.47
2022-11-05T07:23:50.866Z,3.28
2022-11-05T07:26:36.425Z,3.10
2022-11-05T07:29:21.950Z,3.00
2022-11-05T07:32:07.607Z,2.53
2022-11-05T07:34:52.908Z,3.47
2022-11-05T07:37:49.567Z,3.15
2022-11-05T07:40:35.036Z,3.53
2022-11-05T07:43:20.543Z,2.97
2022-11-05T07:46:11.156Z,3.83
2022-11-05T07:48:59.117Z,3.80
2022-11-05T07:51:44.773Z,4.28
2022-11-05T07:54:30.034Z,4.07
2022-11-05T07:57:15.529Z,4.20
2022-11-05T08:00:00.730Z,3.55
2022-11-05T08:03:05.574Z,3.75
2022-11-05T08:05:53.019Z,3.47
2022-11-05T08:08:38.395Z,3.40
2022-11-05T08:11:23.759Z,3.08
2022-11-05T08:14:09.423Z,2.60
2022-11-05T08:16:54.722Z,3.15
2022-11-05T08:19:40.231Z,4.57
2022-11-05T08:22:25.624Z,2.42
2022-11-05T08:25:12.949Z,3.42
2022-11-05T08:28:00.327Z,3.25
2022-11-05T08:30:49.945Z,2.85
2022-11-05T08:33:34.968Z,3.50
2022-11-05T08:36:20.431Z,3.28
2022-11-05T08:39:05.732Z,3.30
2022-11-05T08:41:51.288Z,3.67
2022-11-05T08:44:36.431Z,3.47
2022-11-05T08:47:22.185Z,3.50
2022-11-05T08:50:08.453Z,5.00
2022-11-05T08:52:53.542Z,2.97
2022-11-05T08:55:39.181Z,4.07
2022-11-05T08:58:25.234Z,3.85
2022-11-05T09:01:10.642Z,3.65
2022-11-05T09:03:56.042Z,4.35
2022-11-05T09:06:41.385Z,4.78
2022-11-05T09:09:26.738Z,3.63
2022-11-05T09:12:13.057Z,3.45
2022-11-05T09:14:58.636Z,3.38
2022-11-05T09:17:43.885Z,4.25
2022-11-05T09:20:29.504Z,5.00
2022-11-05T09:23:15.585Z,4.05
2022-11-05T09:26:00.611Z,3.65
2022-11-05T09:28:46.116Z,4.40
2022-11-05T09:31:31.558Z,3.83
2022-11-05T09:34:16.854Z,2.88
2022-11-05T09:37:02.890Z,3.15
2022-11-05T09:39:48.203Z,3.08
2022-11-05T09:42:40.398Z,2.58
2022-11-05T09:45:28.151Z,3.85
2022-11-05T09:48:17.572Z,3.33
2022-11-05T09:51:05.152Z,2.88
2022-11-05T09:53:51.032Z,4.22
2022-11-05T09:56:40.648Z,5.55
2022-11-05T09:59:45.863Z,3.17
2022-11-05T10:02:41.425Z,4.88
2022-11-05T10:05:28.213Z,3.72
2022-11-05T10:08:19.549Z,5.00
2022-11-05T10:11:16.599Z,4.03
2022-11-05T10:14:15.556Z,5.88
2022-11-05T10:17:08.003Z,4.38
2022-11-05T10:20:09.835Z,3.85
2022-11-05T10:22:58.420Z,4.55
2022-11-05T10:26:06.241Z,3.80
2022-11-05T10:28:51.601Z,3.33
2022-11-05T10:31:37.633Z,5.00
2022-11-05T10:34:27.307Z,4.93
2022-11-05T10:37:12.649Z,5.53
2022-11-05T10:39:58.244Z,6.40
2022-11-05T10:42:59.054Z,5.30
2022-11-05T10:46:04.249Z,4.57
2022-11-05T10:49:08.183Z,3.92
2022-11-05T10:51:57.396Z,3.58
2022-11-05T10:54:42.920Z,4.03
2022-11-05T10:57:35.183Z,4.25
2022-11-05T11:00:22.662Z,3.88
2022-11-05T11:03:47.451Z,4.63
2022-11-05T11:06:37.734Z,3.67
2022-11-05T11:09:30.461Z,4.25
2022-11-05T11:12:25.758Z,4.05
2022-11-05T11:15:27.796Z,3.28
2022-11-05T11:18:34.701Z,3.60
2022-11-05T11:21:24.973Z,4.28
2022-11-05T11:24:22.936Z,3.30
2022-11-05T11:27:13.610Z,5.55
2022-11-05T11:30:03.836Z,3.42
2022-11-05T11:32:49.643Z,4.55
2022-11-05T11:35:37.995Z,2.95
2022-11-05T11:38:24.355Z,2.83
2022-11-05T11:41:29.507Z,3.22
2022-11-05T11:44:23.645Z,3.65
2022-11-05T11:47:18.622Z,3.17
2022-11-05T11:50:04.328Z,3.88
2022-11-05T11:52:49.412Z,4.13
2022-11-05T11:55:34.903Z,4.93
2022-11-05T11:58:21.049Z,4.45
2022-11-05T12:01:09.442Z,3.05
2022-11-05T12:04:08.570Z,5.30
2022-11-05T12:07:37.099Z,6.15
2022-11-05T12:10:31.882Z,4.95
2022-11-05T12:13:23.216Z,3.58
2022-11-05T12:16:22.155Z,3.72
2022-11-05T12:19:19.250Z,5.07
2022-11-05T12:22:10.540Z,3.15
2022-11-05T12:25:10.967Z,3.95
2022-11-05T12:28:20.574Z,5.43
2022-11-05T12:31:14.221Z,2.83
2022-11-05T12:34:16.502Z,3.42
2022-11-05T12:37:36.306Z,5.13
2022-11-05T12:40:42.008Z,3.20
2022-11-05T12:43:58.307Z,4.43
2022-11-05T12:46:49.651Z,4.80
2022-11-05T12:49:59.948Z,2.43
2022-11-05T12:53:06.441Z,3.35
2022-11-05T12:55:52.650Z,2.67
2022-11-05T12:58:42.922Z,3.65
2022-11-05T13:01:39.802Z,3.13
2022-11-05T13:04:43.970Z,3.38
2022-11-05T13:07:34.230Z,3.03
2022-11-05T13:10:44.224Z,3.78
2022-11-05T13:13:38.202Z,2.67
2022-11-05T13:16:46.417Z,3.17
2022-11-05T13:19:52.182Z,3.67
2022-11-05T13:22:42.542Z,3.78
2022-11-05T13:25:31.303Z,2.50
2022-11-05T13:28:47.938Z,4.65
2022-11-05T13:31:43.348Z,2.88
2022-11-05T13:34:32.270Z,3.42
2022-11-05T13:37:46.159Z,4.97
2022-11-05T13:40:50.185Z,4.20
2022-11-05T13:43:56.850Z,3.90
2022-11-05T13:47:08.139Z,3.47
2022-11-05T13:50:04.245Z,3.88
2022-11-05T13:53:07.465Z,4.05
2022-11-05T13:56:13.459Z,4.35
2022-11-05T13:59:30.474Z,3.35
2022-11-05T14:02:26.261Z,2.85
2022-11-05T14:05:34.608Z,3.88
2022-11-05T14:08:26.090Z,3.90
2022-11-05T14:11:33.657Z,3.57
2022-11-05T14:14:23.599Z,3.72
2022-11-05T14:17:09.177Z,3.92
2022-11-05T14:20:06.437Z,4.85
2022-11-05T14:22:52.274Z,5.32
2022-11-05T14:25:37.651Z,3.72
2022-11-05T14:28:35.182Z,3.58
2022-11-05T14:31:47.492Z,4.03
2022-11-05T14:34:47.098Z,4.35
2022-11-05T14:37:39.479Z,3.65
2022-11-05T14:40:37.922Z,4.05
2022-11-05T14:43:25.508Z,4.68
2022-11-05T14:46:12.299Z,4.60
2022-11-05T14:49:09.099Z,4.40
2022-11-05T14:51:57.492Z,5.25
2022-11-05T14:54:55.002Z,5.13
2022-11-05T14:57:43.079Z,4.25
2022-11-05T15:00:28.426Z,4.15
2022-11-05T15:03:47.116Z,4.93
2022-11-05T15:06:35.440Z,4.13
2022-11-05T15:09:27.860Z,4.30
2022-11-05T15:12:39.897Z,3.58
2022-11-05T15:15:28.737Z,3.88
2022-11-05T15:18:27.297Z,4.55
2022-11-05T15:21:18.256Z,3.38
2022-11-05T15:24:04.639Z,5.22
2022-11-05T15:27:07.362Z,3.45
2022-11-05T15:29:53.335Z,3.60
2022-11-05T15:32:39.270Z,4.15
2022-11-05T15:35:28.067Z,6.38
2022-11-05T15:38:31.158Z,4.70
2022-11-05T15:41:21.429Z,3.58
2022-11-05T15:44:22.775Z,5.50
2022-11-05T15:47:16.262Z,4.28
2022-11-05T15:50:13.101Z,3.83
2022-11-05T15:53:20.727Z,4.63
2022-11-05T15:56:10.855Z,5.75
2022-11-05T15:59:14.971Z,4.15
2022-11-05T16:02:25.375Z,4.60
2022-11-05T16:05:13.570Z,3.88
2022-11-05T16:08:00.730Z,3.92
2022-11-05T16:10:49.095Z,4.78
2022-11-05T16:13:41.673Z,4.25
2022-11-05T16:19:41.321Z,5.30
2022-11-05T16:22:44.461Z,5.35
2022-11-05T16:25:40.470Z,7.82
2022-11-05T16:28:28.581Z,5.28
2022-11-05T16:31:14.258Z,4.45
2022-11-05T16:33:59.494Z,6.35
2022-11-05T16:36:44.915Z,5.43
2022-11-05T16:39:30.151Z,5.57
2022-11-05T16:42:25.950Z,6.63
2022-11-05T16:45:13.580Z,4.80
2022-11-05T16:47:58.745Z,4.28
2022-11-05T16:50:45.272Z,7.85
2022-11-05T16:53:30.887Z,5.93
2022-11-05T16:56:19.295Z,8.73
2022-11-05T16:59:04.485Z,6.78
2022-11-05T17:01:54.629Z,6.30
2022-11-05T17:04:40.971Z,7.20
2022-11-05T17:07:26.331Z,5.68
2022-11-05T17:10:11.686Z,6.20
2022-11-05T17:12:57.363Z,6.68
2022-11-05T17:15:44.543Z,8.45
2022-11-05T17:18:30.151Z,7.10
2022-11-05T17:21:15.448Z,6.25
2022-11-05T17:24:00.824Z,6.85
2022-11-05T17:26:46.317Z,6.30
2022-11-05T17:29:31.517Z,6.32
2022-11-05T17:32:16.996Z,6.63
2022-11-05T17:35:02.375Z,7.43
2022-11-05T17:37:47.940Z,6.50
2022-11-05T17:40:34.565Z,6.80
2022-11-05T17:43:20.338Z,7.05
2022-11-05T17:46:11.246Z,5.43
2022-11-05T17:48:56.734Z,6.15
2022-11-05T17:51:42.160Z,6.75
2022-11-05T17:54:27.627Z,6.82
2022-11-05T17:57:13.286Z,7.60
2022-11-05T17:59:58.650Z,6.10
2022-11-05T18:02:44.447Z,7.18
2022-11-05T18:05:30.827Z,9.02
2022-11-05T18:08:16.858Z,8.07
2022-11-05T18:11:02.299Z,6.70
2022-11-05T18:13:47.550Z,7.45
2022-11-05T18:16:34.200Z,7.45
2022-11-05T18:19:19.272Z,7.22
2022-11-05T18:22:04.616Z,6.57
2022-11-05T18:24:50.232Z,8.45
2022-11-05T18:27:35.839Z,7.90
2022-11-05T18:30:21.067Z,9.25
2022-11-05T18:33:07.040Z,8.70
2022-11-05T18:35:52.169Z,8.00
2022-11-05T18:38:37.499Z,8.35
2022-11-05T18:41:23.182Z,7.57
2022-11-05T18:44:08.403Z,8.80
2022-11-05T18:46:58.528Z,7.05
2022-11-05T18:49:44.170Z,10.05
2022-11-05T18:52:31.603Z,8.57
2022-11-05T18:55:17.149Z,7.57
2022-11-05T18:58:02.368Z,7.40
2022-11-05T19:00:47.897Z,6.47
2022-11-05T19:03:33.890Z,8.27
2022-11-05T19:06:19.787Z,9.45
2022-11-05T19:09:08.487Z,9.82
2022-11-05T19:11:56.928Z,6.82
2022-11-05T19:14:45.131Z,7.30
2022-11-05T19:17:32.660Z,9.27
2022-11-05T19:20:17.854Z,7.32
2022-11-05T19:23:03.424Z,8.57
2022-11-05T19:25:48.624Z,8.15
2022-11-05T19:28:34.243Z,8.07
2022-11-05T19:31:22.315Z,7.57
2022-11-05T19:34:08.230Z,7.03
2022-11-05T19:36:53.464Z,6.57
2022-11-05T19:39:40.402Z,6.88
2022-11-05T19:42:26.998Z,5.85
2022-11-05T19:45:38.175Z,8.50
2022-11-05T19:48:19.808Z,6.90
2022-11-05T19:51:06.764Z,7.13
2022-11-05T19:53:53.479Z,7.07
2022-11-05T19:56:38.679Z,6.00
2022-11-05T19:59:24.075Z,7.32
2022-11-05T20:02:14.992Z,8.45
2022-11-05T20:05:01.911Z,8.77
2022-11-05T20:07:52.824Z,7.72
2022-11-05T20:10:38.873Z,4.95
2022-11-05T20:13:24.761Z,6.43
2022-11-05T20:16:20.479Z,7.00
2022-11-05T20:19:18.714Z,6.75
2022-11-05T20:22:03.958Z,7.30
2022-11-05T20:24:49.306Z,6.32
2022-11-05T20:27:34.786Z,6.43
2022-11-05T20:30:20.461Z,6.05
2022-11-05T20:33:05.734Z,6.50
2022-11-05T20:35:51.113Z,6.47
2022-11-05T20:38:36.435Z,5.78
2022-11-05T20:41:22.318Z,7.00
2022-11-05T20:44:07.820Z,6.78
2022-11-05T20:46:53.189Z,8.52
2022-11-05T20:49:38.619Z,5.55
2022-11-05T20:52:24.110Z,5.82
2022-11-05T20:55:09.703Z,7.03
2022-11-05T20:57:54.938Z,6.32
2022-11-05T21:00:47.055Z,6.60
2022-11-05T21:03:32.632Z,5.65
2022-11-05T21:06:17.968Z,5.97
2022-11-05T21:09:04.289Z,5.85
2022-11-05T21:12:07.971Z,8.00
2022-11-05T21:14:53.467Z,7.50
2022-11-05T21:17:38.896Z,8.07
2022-11-05T21:20:24.284Z,5.43
2022-11-05T21:23:09.967Z,5.30
2022-11-05T21:25:55.267Z,6.13
2022-11-05T21:28:41.556Z,7.82
2022-11-05T21:31:26.844Z,5.03
2022-11-05T21:34:13.079Z,6.20
2022-11-05T21:36:58.151Z,7.43
2022-11-05T21:39:44.043Z,6.93
2022-11-05T21:42:29.845Z,7.13
2022-11-05T21:45:15.191Z,9.95
2022-11-05T21:48:00.259Z,9.18
2022-11-05T21:51:09.694Z,6.45
2022-11-05T21:54:13.592Z,6.50
2022-11-05T21:57:17.682Z,7.82
2022-11-05T22:00:05.722Z,5.50
2022-11-05T22:02:51.292Z,6.63
2022-11-05T22:05:36.724Z,10.50
2022-11-05T22:08:22.239Z,7.57
2022-11-05T22:11:08.150Z,7.07
2022-11-05T22:13:53.586Z,5.47
2022-11-05T22:16:39.039Z,7.50
2022-11-05T22:19:24.907Z,8.88
2022-11-05T22:22:09.919Z,7.50
2022-11-05T22:24:55.212Z,7.78
2022-11-05T22:27:40.431Z,7.32
2022-11-05T22:30:27.042Z,6.95
2022-11-05T22:33:12.549Z,9.02
2022-11-05T22:35:58.130Z,7.85
2022-11-05T22:38:44.048Z,8.25
2022-11-05T22:41:29.992Z,7.78
2022-11-05T22:44:16.611Z,5.63
2022-11-05T22:47:01.973Z,8.57
2022-11-05T22:49:50.286Z,5.90
2022-11-05T22:52:35.515Z,7.07
2022-11-05T22:55:20.674Z,7.00
2022-11-05T22:58:06.044Z,6.97
2022-11-05T23:00:51.596Z,7.43
2022-11-05T23:03:37.883Z,7.90
2022-11-05T23:06:44.095Z,7.88
2022-11-05T23:09:50.863Z,7.75
2022-11-05T23:12:42.381Z,8.70
2022-11-05T23:15:46.455Z,8.18
2022-11-05T23:18:50.153Z,8.02
2022-11-05T23:22:10.875Z,6.40
2022-11-05T23:24:56.096Z,7.88
2022-11-05T23:27:41.668Z,5.38
2022-11-05T23:30:27.472Z,6.45
2022-11-05T23:33:12.554Z,9.02
2022-11-05T23:36:18.175Z,7.13
2022-11-05T23:39:03.870Z,6.10
2022-11-05T23:42:07.475Z,6.88
2022-11-05T23:45:14.420Z,7.78
2022-11-05T23:48:23.110Z,8.38
2022-11-05T23:51:10.724Z,8.75
2022-11-05T23:53:55.753Z,8.38
2022-11-05T23:56:41.342Z,6.28
2022-11-05T23:59:26.981Z,6.15
